Main page
METAR-TAF:

METAR-TAF

Airports :

Farnborough Airport

Farnborough, England

latitude: 51-17N, longitude: 000-46W, elevation: 65 m

Current weather observation

The report was made 33 minutes ago, at 07:20 UTC
Wind 4 kt from the Southwest, varying between South and West
Temperature 16°C
Humidity 82%
Pressure 1003 hPa
Visibility 10 km or more

METAR: EGLF 180720Z AUTO 22004KT 180V260 9999 NCD 16/13 Q1003

Time: 08:53 (07:53 UTC)

Forecast

The report was made 6 minutes ago, at 07:47 UTC
Forecast valid from 18 at 07 UTC to 18 at 15 UTC
Wind 8 kt from the Southwest
Visibility 10 km or more
Scattered clouds at a height of 3000 ft
Probability 40% :
Temporary
from 18 at 08 UTC to 18 at 10 UTC
Visibility: 4000 m
rain showers
Probability 30% :
Temporary
from 18 at 10 UTC to 18 at 15 UTC
Wind 15 kt from the West/Southwest with gusts up to 25 kt
Visibility: 7000 m
rain showers

TAF: EGLF 180747Z 1807/1815 23008KT 9999 SCT030 PROB40 TEMPO 1808/1810 4000 SHRA PROB30 TEMPO 1810/1815 25015G25KT 7000 SHRA

Weather observations and forecasts of more than 4000 airports (METAR and TAF reports).

The available stations are represented by yellow and red dots on the map.

Hover mouse over dot to see the name of the station.

Then click to see weather observations and forecasts.

To change the map : click on the green buttons with a black cross to zoom in, on the green button with a dash to zoom out, or on the green arrows for adjacent maps.


METAR-TAF: